createdAt,value
2023-01-03T00:01:20.491Z,100875.63
2023-01-03T00:03:47.534Z,100881.91
2023-01-03T00:06:21.020Z,100872.88
2023-01-03T00:08:47.991Z,100875.72
2023-01-03T00:11:17.146Z,100886.34
2023-01-03T00:13:44.526Z,100879.06
2023-01-03T00:16:18.787Z,100884.66
2023-01-03T00:18:45.865Z,100888.59
2023-01-03T00:21:13.162Z,100889.66
2023-01-03T00:23:39.988Z,100892.38
2023-01-03T00:26:15.759Z,100895.25
2023-01-03T00:28:43.144Z,100892.25
2023-01-03T00:31:12.036Z,100896.31
2023-01-03T00:33:40.557Z,100896.81
2023-01-03T00:36:09.202Z,100901.00
2023-01-03T00:38:37.212Z,100904.09
2023-01-03T00:41:09.913Z,100902.31
2023-01-03T00:43:37.522Z,100906.41
2023-01-03T00:46:06.328Z,100908.50
2023-01-03T00:48:34.035Z,100902.53
2023-01-03T00:51:08.664Z,100908.28
2023-01-03T00:53:36.428Z,100909.91
2023-01-03T00:56:12.296Z,100906.69
2023-01-03T00:58:39.761Z,100912.88
2023-01-03T01:01:16.210Z,100907.88
2023-01-03T01:03:46.628Z,100912.88
2023-01-03T01:06:26.993Z,100909.91
2023-01-03T01:08:57.475Z,100913.19
2023-01-03T01:11:25.155Z,100914.97
2023-01-03T01:13:52.847Z,100924.81
2023-01-03T01:16:25.359Z,100921.78
2023-01-03T01:18:56.464Z,100929.41
2023-01-03T01:21:26.350Z,100932.63
2023-01-03T01:23:53.794Z,100939.41
2023-01-03T01:26:23.666Z,100946.03
2023-01-03T01:28:52.560Z,100939.09
2023-01-03T01:31:22.027Z,100938.44
2023-01-03T01:33:49.561Z,100946.03
2023-01-03T01:36:23.994Z,100942.34
2023-01-03T01:38:55.810Z,100944.09
2023-01-03T01:41:41.079Z,100945.59
2023-01-03T01:44:39.850Z,100947.22
2023-01-03T01:47:19.921Z,100946.19
2023-01-03T01:49:49.748Z,100941.38
2023-01-03T01:52:18.725Z,100942.22
2023-01-03T01:54:46.268Z,100950.09
2023-01-03T01:57:18.689Z,100953.91
2023-01-03T01:59:46.062Z,100953.91
2023-01-03T02:02:17.199Z,100952.28
2023-01-03T02:04:45.340Z,100962.81
2023-01-03T02:07:12.082Z,100956.50
2023-01-03T02:09:38.888Z,100964.75
2023-01-03T02:12:42.019Z,100956.69
2023-01-03T02:15:17.493Z,100960.84
2023-01-03T02:18:13.699Z,100963.91
2023-01-03T02:20:49.235Z,100971.50
2023-01-03T02:23:40.854Z,100962.56
2023-01-03T02:26:49.827Z,100970.22
2023-01-03T02:29:23.066Z,100969.25
2023-01-03T02:31:57.459Z,100962.69
2023-01-03T02:34:34.715Z,100962.03
2023-01-03T02:37:20.692Z,100959.75
2023-01-03T02:39:49.613Z,100964.28
2023-01-03T02:42:43.220Z,100973.53
2023-01-03T02:45:28.948Z,100973.28
2023-01-03T02:48:19.813Z,100974.25
2023-01-03T02:50:50.498Z,100989.88
2023-01-03T02:53:25.918Z,100985.16
2023-01-03T02:55:57.068Z,100982.72
2023-01-03T02:58:26.817Z,100978.38
2023-01-03T03:00:56.580Z,100986.22
2023-01-03T03:03:28.933Z,100979.19
2023-01-03T03:06:04.654Z,100988.69
2023-01-03T03:08:31.464Z,100995.97
2023-01-03T03:11:16.940Z,101009.53
2023-01-03T03:13:59.511Z,101016.91
2023-01-03T03:16:48.145Z,101014.03
2023-01-03T03:19:47.868Z,101010.78
2023-01-03T03:22:54.713Z,101017.56
2023-01-03T03:25:36.088Z,101027.47
2023-01-03T03:28:28.865Z,101027.22
2023-01-03T03:30:59.392Z,101021.78
2023-01-03T03:33:28.907Z,101022.28
2023-01-03T03:36:11.094Z,101018.09
2023-01-03T03:38:41.609Z,101013.53
2023-01-03T03:41:34.235Z,101010.53
2023-01-03T03:45:01.061Z,101016.28
2023-01-03T03:47:58.737Z,101012.22
2023-01-03T03:50:29.389Z,101024.38
2023-01-03T03:53:00.191Z,101018.94
2023-01-03T03:55:35.826Z,101017.84
2023-01-03T03:58:14.627Z,101017.56
2023-01-03T04:00:44.015Z,101020.00
2023-01-03T04:03:13.031Z,101014.03
2023-01-03T04:05:50.044Z,101020.81
2023-01-03T04:08:16.860Z,101014.22
2023-01-03T04:10:44.038Z,101011.50
2023-01-03T04:13:11.292Z,101022.13
2023-01-03T04:15:38.049Z,101029.47
2023-01-03T04:18:04.907Z,101016.91
2023-01-03T04:20:31.751Z,101025.44
2023-01-03T04:22:59.658Z,101027.22
2023-01-03T04:25:26.861Z,101020.94
2023-01-03T04:27:55.208Z,101017.41
2023-01-03T04:30:22.651Z,101029.50
2023-01-03T04:32:49.405Z,101042.16
2023-01-03T04:35:16.239Z,101044.59
2023-01-03T04:37:42.924Z,101050.38
2023-01-03T04:40:10.386Z,101045.22
2023-01-03T04:42:57.855Z,101049.13
2023-01-03T04:45:24.762Z,101053.22
2023-01-03T04:47:52.892Z,101062.44
2023-01-03T04:50:19.683Z,101068.41
2023-01-03T04:52:46.478Z,101065.50
2023-01-03T04:55:13.285Z,101074.38
2023-01-03T04:57:40.039Z,101083.09
2023-01-03T05:00:07.493Z,101077.94
2023-01-03T05:02:34.565Z,101076.97
2023-01-03T05:05:01.349Z,101070.19
2023-01-03T05:07:30.552Z,101072.75
2023-01-03T05:09:57.468Z,101080.31
2023-01-03T05:12:24.306Z,101073.25
2023-01-03T05:14:51.093Z,101077.59
2023-01-03T05:17:21.604Z,101079.03
2023-01-03T05:20:07.444Z,101082.53
2023-01-03T05:22:53.615Z,101079.44
2023-01-03T05:25:38.893Z,101079.59
2023-01-03T05:28:05.899Z,101081.34
2023-01-03T05:30:32.977Z,101079.34
2023-01-03T05:32:59.723Z,101084.13
2023-01-03T05:35:26.438Z,101085.13
2023-01-03T05:37:56.211Z,101088.34
2023-01-03T05:40:22.954Z,101080.16
2023-01-03T05:42:49.696Z,101085.63
2023-01-03T05:45:16.686Z,101083.19
2023-01-03T05:47:43.459Z,101079.63
2023-01-03T05:50:10.278Z,101076.09
2023-01-03T05:52:37.135Z,101087.09
2023-01-03T05:55:04.481Z,101093.75
2023-01-03T05:57:35.377Z,101093.63
2023-01-03T06:00:03.549Z,101099.41
2023-01-03T06:02:32.985Z,101101.03
2023-01-03T06:04:59.751Z,101088.81
2023-01-03T06:07:26.574Z,101094.50
2023-01-03T06:09:53.357Z,101090.28
2023-01-03T06:12:20.075Z,101102.13
2023-01-03T06:14:46.822Z,101108.91
2023-01-03T06:17:32.062Z,101105.38
2023-01-03T06:19:58.863Z,101105.38
2023-01-03T06:22:25.570Z,101110.19
2023-01-03T06:24:52.384Z,101114.56
2023-01-03T06:27:19.223Z,101111.81
2023-01-03T06:29:46.018Z,101114.41
2023-01-03T06:32:13.006Z,101118.09
2023-01-03T06:34:39.829Z,101122.44
2023-01-03T06:37:06.617Z,101126.00
2023-01-03T06:39:33.607Z,101129.56
2023-01-03T06:42:20.698Z,101135.34
2023-01-03T06:45:06.046Z,101146.50
2023-01-03T06:47:51.699Z,101152.31
2023-01-03T06:50:37.774Z,101157.19
2023-01-03T06:53:13.909Z,101159.91
2023-01-03T06:55:48.767Z,101156.19
2023-01-03T06:58:19.560Z,101146.97
2023-01-03T07:00:47.281Z,101150.47
2023-01-03T07:03:14.127Z,101146.97
2023-01-03T07:05:40.945Z,101157.00
2023-01-03T07:08:07.782Z,101154.56
2023-01-03T07:10:34.611Z,101161.34
2023-01-03T07:13:21.114Z,101165.28
2023-01-03T07:15:48.138Z,101167.19
2023-01-03T07:18:14.997Z,101160.97
2023-01-03T07:20:43.506Z,101158.69
2023-01-03T07:23:11.738Z,101172.53
2023-01-03T07:25:41.912Z,101169.97
2023-01-03T07:28:13.284Z,101164.00
2023-01-03T07:30:45.709Z,101174.16
2023-01-03T07:33:14.931Z,101176.47
2023-01-03T07:35:42.151Z,101180.41
2023-01-03T07:38:10.634Z,101182.19
2023-01-03T07:40:37.392Z,101189.63
2023-01-03T07:43:22.581Z,101193.69
2023-01-03T07:45:49.629Z,101189.88
2023-01-03T07:48:17.015Z,101197.03
2023-01-03T07:50:43.808Z,101200.69
2023-01-03T07:53:16.716Z,101207.16
2023-01-03T07:55:47.507Z,101209.81
2023-01-03T07:58:14.577Z,101214.25
2023-01-03T08:00:42.371Z,101218.06
2023-01-03T08:03:11.356Z,101217.41
2023-01-03T08:05:38.972Z,101219.16
2023-01-03T08:08:07.176Z,101212.34
2023-01-03T08:10:52.792Z,101214.56
2023-01-03T08:13:19.860Z,101214.47
2023-01-03T08:15:58.384Z,101216.94
2023-01-03T08:18:27.903Z,101223.22
2023-01-03T08:20:57.428Z,101223.28
2023-01-03T08:23:25.256Z,101231.94
2023-01-03T08:25:59.293Z,101229.53
2023-01-03T08:28:26.301Z,101232.41
2023-01-03T08:30:53.931Z,101240.19
2023-01-03T08:33:21.211Z,101236.16
2023-01-03T08:35:57.943Z,101229.03
2023-01-03T08:38:37.581Z,101237.09
2023-01-03T08:41:06.429Z,101247.31
2023-01-03T08:43:35.879Z,101240.16
2023-01-03T08:46:05.549Z,101244.03
2023-01-03T08:48:32.347Z,101238.16
2023-01-03T08:50:59.195Z,101235.72
2023-01-03T08:53:29.031Z,101243.84
2023-01-03T08:55:57.667Z,101245.47
2023-01-03T08:58:28.545Z,101229.91
2023-01-03T09:00:55.348Z,101241.59
2023-01-03T09:03:22.963Z,101235.09
2023-01-03T09:05:50.007Z,101241.59
2023-01-03T09:08:18.548Z,101235.75
2023-01-03T09:10:47.936Z,101239.97
2023-01-03T09:13:14.875Z,101238.34
2023-01-03T09:15:43.305Z,101239.97
2023-01-03T09:18:10.467Z,101242.56
2023-01-03T09:20:37.407Z,101238.66
2023-01-03T09:23:04.197Z,101249.03
2023-01-03T09:25:36.738Z,101249.16
2023-01-03T09:28:04.571Z,101258.00
2023-01-03T09:30:31.288Z,101255.63
2023-01-03T09:32:59.592Z,101250.94
2023-01-03T09:35:26.408Z,101249.25
2023-01-03T09:37:53.139Z,101250.19
2023-01-03T09:40:20.020Z,101251.81
2023-01-03T09:43:05.384Z,101241.38
2023-01-03T09:45:35.433Z,101248.50
2023-01-03T09:48:05.186Z,101250.22
2023-01-03T09:50:57.202Z,101248.56
2023-01-03T09:53:49.908Z,101246.91
2023-01-03T09:56:25.980Z,101241.81
2023-01-03T09:59:18.952Z,101239.84
2023-01-03T10:02:36.782Z,101243.31
2023-01-03T10:05:24.198Z,101244.41
2023-01-03T10:08:19.016Z,101247.00
2023-01-03T10:11:30.917Z,101249.69
2023-01-03T10:14:29.749Z,101245.13
2023-01-03T10:17:19.611Z,101245.50
2023-01-03T10:19:49.420Z,101242.16
2023-01-03T10:22:23.050Z,101236.63
2023-01-03T10:25:04.435Z,101239.84
2023-01-03T10:27:42.349Z,101239.59
2023-01-03T10:30:15.808Z,101232.91
2023-01-03T10:33:16.516Z,101236.97
2023-01-03T10:35:43.322Z,101223.66
2023-01-03T10:38:10.095Z,101219.38
2023-01-03T10:40:51.543Z,101226.75
2023-01-03T10:43:41.087Z,101219.84
2023-01-03T10:46:18.556Z,101213.44
2023-01-03T10:49:25.998Z,101220.69
2023-01-03T10:51:51.214Z,101220.06
2023-01-03T10:54:24.776Z,101227.06
2023-01-03T10:56:52.083Z,101234.19
2023-01-03T10:59:31.283Z,101236.78
2023-01-03T11:01:59.737Z,101230.25
2023-01-03T11:04:27.741Z,101222.63
2023-01-03T11:07:12.504Z,101226.72
2023-01-03T11:09:51.561Z,101234.91
2023-01-03T11:12:29.670Z,101247.91
2023-01-03T11:14:58.329Z,101240.09
2023-01-03T11:17:27.615Z,101235.16
2023-01-03T11:19:55.529Z,101231.94
2023-01-03T11:22:37.448Z,101235.88
2023-01-03T11:25:19.530Z,101232.47
2023-01-03T11:27:55.265Z,101240.75
2023-01-03T11:30:29.253Z,101228.50
2023-01-03T11:33:13.304Z,101214.53
2023-01-03T11:35:53.647Z,101224.59
2023-01-03T11:38:40.025Z,101224.25
2023-01-03T11:41:18.533Z,101222.28
2023-01-03T11:44:19.066Z,101219.06
2023-01-03T11:46:45.780Z,101218.59
2023-01-03T11:49:29.396Z,101211.31
2023-01-03T11:52:07.892Z,101198.81
2023-01-03T11:54:53.162Z,101202.25
2023-01-03T11:57:32.720Z,101203.88
2023-01-03T12:00:11.551Z,101197.34
2023-01-03T12:02:55.559Z,101208.03
2023-01-03T12:05:37.796Z,101198.22
2023-01-03T12:08:08.269Z,101198.47
2023-01-03T12:10:51.624Z,101196.25
2023-01-03T12:13:46.134Z,101203.13
2023-01-03T12:16:36.929Z,101201.69
2023-01-03T12:19:26.083Z,101200.63
2023-01-03T12:22:04.119Z,101198.38
2023-01-03T12:25:05.126Z,101199.44
2023-01-03T12:27:56.486Z,101194.84
2023-01-03T12:30:48.620Z,101198.91
2023-01-03T12:33:27.564Z,101194.25
2023-01-03T12:36:05.944Z,101192.19
2023-01-03T12:38:45.006Z,101187.59
2023-01-03T12:41:23.977Z,101191.81
2023-01-03T12:44:01.458Z,101192.06
2023-01-03T12:46:34.568Z,101191.00
2023-01-03T12:49:31.731Z,101195.19
2023-01-03T12:51:59.513Z,101187.88
2023-01-03T12:54:40.150Z,101197.56
2023-01-03T12:57:38.216Z,101200.22
2023-01-03T13:00:37.521Z,101200.13
2023-01-03T13:03:27.637Z,101197.22
2023-01-03T13:06:04.151Z,101195.94
2023-01-03T13:08:43.920Z,101195.13
2023-01-03T13:11:20.332Z,101186.22
2023-01-03T13:13:59.906Z,101191.03
2023-01-03T13:16:47.617Z,101193.41
2023-01-03T13:19:23.715Z,101192.75
2023-01-03T13:21:53.648Z,101199.56
2023-01-03T13:24:43.189Z,101194.41
2023-01-03T13:27:19.376Z,101199.28
2023-01-03T13:29:58.912Z,101196.69
2023-01-03T13:32:36.324Z,101197.97
2023-01-03T13:35:05.446Z,101201.84
2023-01-03T13:37:47.101Z,101198.00
2023-01-03T13:40:52.184Z,101196.41
2023-01-03T13:43:27.461Z,101201.78
2023-01-03T13:45:57.881Z,101198.72
2023-01-03T13:48:34.675Z,101199.19
2023-01-03T13:51:06.496Z,101201.34
2023-01-03T13:53:39.925Z,101203.94
2023-01-03T13:56:15.991Z,101203.63
2023-01-03T13:58:50.633Z,101206.38
2023-01-03T14:01:56.979Z,101209.81
2023-01-03T14:05:05.525Z,101213.41
2023-01-03T14:08:01.086Z,101212.72
2023-01-03T14:11:00.866Z,101209.81
2023-01-03T14:13:50.241Z,101216.94
2023-01-03T14:16:19.924Z,101216.75
2023-01-03T14:19:03.518Z,101221.66
2023-01-03T14:21:56.564Z,101229.97
2023-01-03T14:24:29.110Z,101224.09
2023-01-03T14:27:04.134Z,101230.09
2023-01-03T14:29:31.211Z,101229.97
2023-01-03T14:32:00.382Z,101230.09
2023-01-03T14:34:41.058Z,101232.03
2023-01-03T14:37:14.765Z,101240.00
2023-01-03T14:39:51.545Z,101236.09
2023-01-03T14:42:18.381Z,101235.44
2023-01-03T14:45:00.541Z,101245.38
2023-01-03T14:47:35.536Z,101255.09
2023-01-03T14:50:05.659Z,101246.00
2023-01-03T14:52:40.902Z,101248.13
2023-01-03T14:55:14.495Z,101243.41
2023-01-03T14:57:44.199Z,101251.00
2023-01-03T15:00:36.928Z,101260.13
2023-01-03T15:03:10.038Z,101261.22
2023-01-03T15:05:39.458Z,101258.81
2023-01-03T15:08:15.712Z,101262.53
2023-01-03T15:10:53.458Z,101256.03
2023-01-03T15:13:41.368Z,101259.63
2023-01-03T15:16:33.533Z,101255.28
2023-01-03T15:19:25.830Z,101261.91
2023-01-03T15:22:05.319Z,101257.53
2023-01-03T15:24:42.987Z,101259.13
2023-01-03T15:27:38.596Z,101258.84
2023-01-03T15:30:14.499Z,101265.47
2023-01-03T15:33:20.080Z,101265.78
2023-01-03T15:35:49.325Z,101265.13
2023-01-03T15:38:36.435Z,101264.00
2023-01-03T15:42:19.530Z,101269.22
2023-01-03T15:44:44.020Z,101270.69
2023-01-03T15:47:13.308Z,101267.09
2023-01-03T15:49:45.564Z,101276.03
2023-01-03T15:52:13.866Z,101275.88
2023-01-03T15:54:42.499Z,101276.03
2023-01-03T15:57:24.820Z,101277.66
2023-01-03T15:59:57.537Z,101282.19
2023-01-03T16:02:27.135Z,101286.41
2023-01-03T16:04:54.429Z,101294.03
2023-01-03T16:07:21.478Z,101295.47
2023-01-03T16:09:48.754Z,101297.44
2023-01-03T16:12:30.421Z,101295.97
2023-01-03T16:14:57.387Z,101299.38
2023-01-03T16:17:28.400Z,101294.47
2023-01-03T16:19:56.970Z,101304.88
2023-01-03T16:22:34.394Z,101301.00
2023-01-03T16:25:02.907Z,101310.41
2023-01-03T16:27:30.535Z,101307.97
2023-01-03T16:29:57.462Z,101307.97
2023-01-03T16:32:29.076Z,101310.72
2023-01-03T16:34:59.730Z,101312.50
2023-01-03T16:37:27.520Z,101309.09
2023-01-03T16:39:54.811Z,101311.69
2023-01-03T16:42:27.647Z,101312.66
2023-01-03T16:44:55.114Z,101312.66
2023-01-03T16:47:24.678Z,101307.47
2023-01-03T16:49:55.495Z,101310.06
2023-01-03T16:52:26.357Z,101309.09
2023-01-03T16:54:54.206Z,101313.16
2023-01-03T16:57:22.546Z,101312.34
2023-01-03T16:59:50.042Z,101324.19
2023-01-03T17:02:17.001Z,101319.16
2023-01-03T17:04:44.768Z,101324.00
2023-01-03T17:07:21.400Z,101330.84
2023-01-03T17:09:50.364Z,101337.31
2023-01-03T17:12:21.187Z,101335.88
2023-01-03T17:14:49.837Z,101341.06
2023-01-03T17:17:22.216Z,101338.13
2023-01-03T17:20:06.141Z,101335.03
2023-01-03T17:22:33.423Z,101345.75
2023-01-03T17:25:00.229Z,101346.41
2023-01-03T17:27:32.625Z,101344.13
2023-01-03T17:30:05.306Z,101342.81
2023-01-03T17:32:32.422Z,101348.00
2023-01-03T17:34:59.205Z,101344.59
2023-01-03T17:37:26.461Z,101341.19
2023-01-03T17:39:59.720Z,101341.53
2023-01-03T17:42:29.164Z,101339.88
2023-01-03T17:45:14.729Z,101347.53
2023-01-03T17:48:02.390Z,101352.22
2023-01-03T17:50:32.956Z,101348.50
2023-01-03T17:53:04.522Z,101340.88
2023-01-03T17:55:31.778Z,101346.19
2023-01-03T17:58:03.135Z,101350.09
2023-01-03T18:00:30.442Z,101352.69
2023-01-03T18:03:00.489Z,101350.25
2023-01-03T18:05:31.047Z,101356.72
2023-01-03T18:08:00.541Z,101354.94
2023-01-03T18:10:45.839Z,101347.94
2023-01-03T18:13:24.669Z,101359.28
2023-01-03T18:15:52.171Z,101359.63
2023-01-03T18:18:21.810Z,101364.00
2023-01-03T18:20:49.444Z,101364.00
2023-01-03T18:23:26.287Z,101364.16
2023-01-03T18:25:53.396Z,101367.41
2023-01-03T18:28:24.744Z,101364.31
2023-01-03T18:30:51.867Z,101363.19
2023-01-03T18:33:18.734Z,101364.00
2023-01-03T18:35:45.783Z,101358.97
2023-01-03T18:38:29.624Z,101362.50
2023-01-03T18:41:04.023Z,101368.69
2023-01-03T18:43:32.064Z,101370.31
2023-01-03T18:45:58.857Z,101366.75
2023-01-03T18:48:25.726Z,101369.19
2023-01-03T18:50:58.875Z,101372.75
2023-01-03T18:53:28.844Z,101370.00
2023-01-03T18:55:55.773Z,101376.81
2023-01-03T18:58:37.049Z,101381.19
2023-01-03T19:01:05.674Z,101385.72
2023-01-03T19:03:34.211Z,101385.88
2023-01-03T19:06:02.345Z,101377.44
2023-01-03T19:08:32.771Z,101381.19
2023-01-03T19:11:14.380Z,101377.09
2023-01-03T19:13:50.559Z,101381.31
2023-01-03T19:16:23.251Z,101387.47
2023-01-03T19:18:50.860Z,101373.03
2023-01-03T19:21:19.403Z,101388.44
2023-01-03T19:23:54.443Z,101383.75
2023-01-03T19:26:34.527Z,101385.00
2023-01-03T19:29:04.641Z,101392.66
2023-01-03T19:31:44.384Z,101389.53
2023-01-03T19:34:23.234Z,101394.53
2023-01-03T19:36:50.785Z,101392.47
2023-01-03T19:39:23.973Z,101387.28
2023-01-03T19:42:13.801Z,101387.44
2023-01-03T19:44:41.677Z,101390.28
2023-01-03T19:47:17.106Z,101390.63
2023-01-03T19:49:47.295Z,101395.47
2023-01-03T19:52:15.516Z,101392.25
2023-01-03T19:54:42.573Z,101386.25
2023-01-03T19:57:26.142Z,101382.81
2023-01-03T19:59:54.807Z,101383.66
2023-01-03T20:02:39.272Z,101379.41
2023-01-03T20:05:21.040Z,101371.75
2023-01-03T20:07:49.149Z,101373.25
2023-01-03T20:10:24.255Z,101374.50
2023-01-03T20:12:55.879Z,101383.44
2023-01-03T20:15:28.789Z,101377.75
2023-01-03T20:17:56.229Z,101382.81
2023-01-03T20:20:27.593Z,101385.41
2023-01-03T20:23:05.136Z,101387.28
2023-01-03T20:25:35.423Z,101390.56
2023-01-03T20:28:02.721Z,101398.97
2023-01-03T20:30:31.393Z,101397.19
2023-01-03T20:32:58.614Z,101394.47
2023-01-03T20:38:17.342Z,101396.38
2023-01-03T20:40:44.154Z,101388.00
2023-01-03T20:43:14.567Z,101391.16
2023-01-03T20:45:41.703Z,101390.34
2023-01-03T20:48:22.925Z,101391.66
2023-01-03T20:50:51.968Z,101401.84
2023-01-03T20:53:21.214Z,101382.38
2023-01-03T20:55:49.791Z,101388.84
2023-01-03T20:58:27.856Z,101391.44
2023-01-03T21:01:01.969Z,101392.72
2023-01-03T21:03:31.468Z,101398.97
2023-01-03T21:05:59.132Z,101394.78
2023-01-03T21:08:44.492Z,101393.91
2023-01-03T21:11:14.737Z,101393.84
2023-01-03T21:13:42.328Z,101401.00
2023-01-03T21:16:34.151Z,101404.50
2023-01-03T21:19:19.180Z,101402.47
2023-01-03T21:21:48.524Z,101405.72
2023-01-03T21:24:17.272Z,101404.41
2023-01-03T21:26:44.191Z,101400.34
2023-01-03T21:29:11.631Z,101404.03
2023-01-03T21:31:42.333Z,101409.81
2023-01-03T21:34:17.918Z,101406.19
2023-01-03T21:36:44.707Z,101413.97
2023-01-03T21:39:11.810Z,101402.28
2023-01-03T21:41:58.694Z,101406.09
2023-01-03T21:44:25.617Z,101402.34
2023-01-03T21:46:52.707Z,101404.56
2023-01-03T21:49:19.940Z,101405.00
2023-01-03T21:51:46.756Z,101412.38
2023-01-03T21:54:13.537Z,101406.81
2023-01-03T21:56:46.292Z,101410.53
2023-01-03T21:59:17.573Z,101412.06
2023-01-03T22:02:04.812Z,101411.53
2023-01-03T22:04:32.534Z,101418.91
2023-01-03T22:07:01.182Z,101411.09
2023-01-03T22:09:47.504Z,101424.94
2023-01-03T22:12:15.779Z,101425.81
2023-01-03T22:14:43.912Z,101439.97
2023-01-03T22:17:10.687Z,101434.59
2023-01-03T22:19:37.427Z,101435.66
2023-01-03T22:22:12.432Z,101433.50
2023-01-03T22:24:39.630Z,101431.31
2023-01-03T22:27:06.556Z,101433.22
2023-01-03T22:29:33.319Z,101435.16
2023-01-03T22:32:00.279Z,101432.06
2023-01-03T22:34:27.190Z,101433.25
2023-01-03T22:36:53.981Z,101425.66
2023-01-03T22:39:20.813Z,101428.38
2023-01-03T22:41:47.556Z,101424.34
2023-01-03T22:44:14.344Z,101428.81
2023-01-03T22:46:41.233Z,101433.56
2023-01-03T22:49:08.009Z,101426.13
2023-01-03T22:51:34.767Z,101429.91
2023-01-03T22:54:01.576Z,101436.31
2023-01-03T22:56:28.338Z,101437.69
2023-01-03T22:58:55.180Z,101440.66
2023-01-03T23:01:27.790Z,101440.16
2023-01-03T23:03:56.921Z,101443.94
2023-01-03T23:06:24.421Z,101438.25
2023-01-03T23:08:54.203Z,101433.66
2023-01-03T23:11:42.731Z,101431.88
2023-01-03T23:14:18.933Z,101436.34
2023-01-03T23:16:46.865Z,101433.22
2023-01-03T23:19:18.518Z,101430.91
2023-01-03T23:21:45.864Z,101427.69
2023-01-03T23:24:21.266Z,101427.38
2023-01-03T23:26:48.195Z,101429.28
2023-01-03T23:29:15.376Z,101432.97
2023-01-03T23:31:43.685Z,101435.25
2023-01-03T23:34:12.012Z,101423.28
2023-01-03T23:36:39.127Z,101422.75
2023-01-03T23:39:05.966Z,101429.00
2023-01-03T23:41:34.515Z,101429.25
2023-01-03T23:44:01.299Z,101435.38
2023-01-03T23:46:28.160Z,101433.06
2023-01-03T23:48:56.787Z,101430.06
2023-01-03T23:51:24.271Z,101433.47
2023-01-03T23:53:51.673Z,101431.97
2023-01-03T23:56:21.135Z,101432.22
2023-01-03T23:58:48.707Z,101429.78
